Terminal Aerodrome Forecast
Issued by NWS Sioux Falls, SD

Home | Current Version | Previous Version | Text Only | Print | Product List | Glossary On
Versions: 1 2 3 4 5 6 7 8 9 10 11 12
372
FTUS43 KFSD 282320
TAFHON
TAF
KHON 282320Z 2900/2924 32014G21KT P6SM VCTS BKN080CB
     FM290200 29010KT P6SM SKC
     FM290300 30007KT P6SM SKC
     FM291200 31010KT P6SM SCT050
     FM291400 32014G23KT P6SM BKN050
     FM291600 32018G26KT P6SM BKN050=

USA.gov is the U.S. government's official web portal to all federal, state and local government web resources and services.